Nearby METAR Reports

 

KPVU - Provo Muni, Utah, USA
Distance from station: S 9mi, 15km
Updated: Fri, 19-Apr-2019 1:56pm MDT
Few Clouds
Few Clouds
 Wind from WSW
Wind: WSW 5 mph , 7 km/h
Temperature: 64°F , 18°C
Dew Point: 43°F , 6°C
Humidity: 46%
Barometer: 30.14 inHg , 1020.7 hPa
Clouds: Few Clouds
Visibility: 10 miles , 16 km
Cloud details: Few Clouds 25000 ft
2019/04/19 19:56 KPVU 191956Z 25004KT 10SM FEW250 18/06 A3014 RMK AO2 SLP180 T01830061
K36U - Heber/Russ Mcdon, Utah, USA
Distance from station: ENE 17mi, 27km
Updated: Wed, 11-Oct-2017 6:50pm MDT
NOT Current
Clear
Clear
 Wind from SSW
Wind: SSW 10 mph , 17 km/h, Gust: 18 mph , 30 km/h
Temperature: 63°F , 17°C
Dew Point: 16°F , -9°C
Humidity: 16%
Barometer: 29.87 inHg , 1011.5 hPa
Clouds: Clear
Visibility: 10 miles , 16 km
2017/10/12 00:50 K36U 120050Z AUTO 21009G16KT 10SM CLR 17/M09 A2987 RMK AO2
 
KSLC - Salt Lake City, Utah, USA
Distance from station: NNW 33mi, 53km
Updated: Fri, 19-Apr-2019 1:54pm MDT
Few Clouds
Few Clouds
 Wind from varies
Wind: varies 6 mph , 9 km/h
Temperature: 72°F , 22°C
Dew Point: 28°F , -2°C
Humidity: 20%
Barometer: 30.09 inHg , 1019 hPa
Clouds: Few Clouds
Visibility: 10 miles , 16 km
Cloud details: Few Clouds 800 ft
Few Clouds 9000 ft
Few Clouds 22000 ft
2019/04/19 19:54 KSLC 191954Z VRB05KT 10SM FEW008 FEW090 FEW220 22/M02 A3009 RMK AO2 SLP155 FU FEW008 FU NW T02221022 $